createdAt,value
2018-04-16T00:00:50.624Z,80.20
2018-04-16T00:01:50.592Z,79.82
2018-04-16T00:02:50.542Z,79.91
2018-04-16T00:03:50.533Z,79.82
2018-04-16T00:04:50.505Z,79.63
2018-04-16T00:05:50.493Z,79.91
2018-04-16T00:06:50.465Z,80.01
2018-04-16T00:07:50.445Z,80.49
2018-04-16T00:08:50.430Z,80.35
2018-04-16T00:09:50.407Z,79.88
2018-04-16T00:10:50.390Z,80.16
2018-04-16T00:11:50.371Z,80.55
2018-04-16T00:12:50.375Z,80.07
2018-04-16T00:13:50.335Z,80.45
2018-04-16T00:14:50.322Z,80.45
2018-04-16T00:15:50.299Z,80.07
2018-04-16T00:16:50.278Z,80.45
2018-04-16T00:17:50.269Z,80.55
2018-04-16T00:18:50.245Z,80.64
2018-04-16T00:19:50.225Z,80.83
2018-04-16T00:20:50.206Z,80.74
2018-04-16T00:21:50.187Z,80.45
2018-04-16T00:22:50.172Z,80.74
2018-04-16T00:23:50.156Z,80.74
2018-04-16T00:24:50.130Z,81.02
2018-04-16T00:25:50.114Z,81.02
2018-04-16T00:26:50.095Z,81.02
2018-04-16T00:27:50.075Z,80.74
2018-04-16T00:28:50.055Z,81.60
2018-04-16T00:29:50.041Z,80.93
2018-04-16T00:30:50.019Z,80.93
2018-04-16T00:31:50.002Z,81.31
2018-04-16T00:32:49.982Z,81.02
2018-04-16T00:33:49.968Z,80.74
2018-04-16T00:34:49.946Z,80.74
2018-04-16T00:35:49.927Z,81.31
2018-04-16T00:36:49.908Z,81.41
2018-04-16T00:37:49.891Z,81.31
2018-04-16T00:38:49.871Z,81.02
2018-04-16T00:39:49.853Z,80.93
2018-04-16T00:40:49.846Z,81.02
2018-04-16T00:41:49.857Z,80.64
2018-04-16T00:42:49.880Z,80.74
2018-04-16T00:43:49.850Z,81.02
2018-04-16T00:44:49.844Z,81.12
2018-04-16T00:45:49.842Z,81.02
2018-04-16T00:46:49.821Z,81.31
2018-04-16T00:47:49.817Z,81.31
2018-04-16T00:48:49.743Z,81.89
2018-04-16T00:49:49.789Z,81.89
2018-04-16T00:50:49.650Z,81.51
2018-04-16T00:51:49.629Z,82.18
2018-04-16T00:52:49.616Z,82.27
2018-04-16T00:53:49.591Z,81.31
2018-04-16T00:54:49.582Z,81.31
2018-04-16T00:55:49.557Z,81.70
2018-04-16T00:56:49.540Z,81.31
2018-04-16T00:57:49.517Z,81.51
2018-04-16T00:58:49.505Z,81.22
2018-04-16T00:59:49.483Z,82.08
2018-04-16T01:00:49.466Z,81.31
2018-04-16T01:01:49.441Z,81.89
2018-04-16T01:02:49.426Z,81.60
2018-04-16T01:03:49.405Z,81.70
2018-04-16T01:04:49.395Z,81.98
2018-04-16T01:05:49.371Z,81.66
2018-04-16T01:06:49.354Z,81.51
2018-04-16T01:07:49.331Z,82.08
2018-04-16T01:08:49.312Z,81.70
2018-04-16T01:09:49.306Z,81.89
2018-04-16T01:10:49.275Z,81.89
2018-04-16T01:11:49.261Z,81.79
2018-04-16T01:12:49.235Z,81.98
2018-04-16T01:13:49.218Z,81.98
2018-04-16T01:14:49.205Z,82.04
2018-04-16T01:15:49.185Z,82.56
2018-04-16T01:16:49.164Z,82.90
2018-04-16T01:17:49.142Z,82.71
2018-04-16T01:18:49.240Z,82.90
2018-04-16T01:19:49.106Z,82.81
2018-04-16T01:20:49.088Z,83.29
2018-04-16T01:21:49.069Z,83.58
2018-04-16T01:22:49.049Z,84.20
2018-04-16T01:23:49.031Z,84.49
2018-04-16T01:24:49.025Z,84.39
2018-04-16T01:25:48.994Z,84.68
2018-04-16T01:26:48.982Z,85.35
2018-04-16T01:27:48.956Z,84.97
2018-04-16T01:28:48.937Z,85.25
2018-04-16T01:29:48.921Z,85.06
2018-04-16T01:30:48.899Z,85.35
2018-04-16T01:31:48.882Z,86.02
2018-04-16T01:32:48.929Z,85.93
2018-04-16T01:33:48.878Z,86.21
2018-04-16T01:34:48.874Z,85.74
2018-04-16T01:35:48.865Z,84.97
2018-04-16T01:36:48.790Z,85.49
2018-04-16T01:37:48.767Z,85.11
2018-04-16T01:38:48.749Z,85.58
2018-04-16T01:39:48.731Z,85.49
2018-04-16T01:40:48.710Z,85.49
2018-04-16T01:41:48.687Z,85.30
2018-04-16T01:42:48.694Z,86.12
2018-04-16T01:43:48.657Z,86.21
2018-04-16T01:44:48.635Z,85.64
2018-04-16T01:45:48.616Z,86.21
2018-04-16T01:46:48.592Z,85.64
2018-04-16T01:47:48.576Z,86.31
2018-04-16T01:50:23.514Z,86.31
2018-04-16T01:51:23.263Z,85.93
2018-04-16T01:53:19.928Z,86.02
2018-04-16T01:54:19.268Z,86.69
2018-04-16T01:56:13.297Z,87.17
2018-04-16T01:57:12.744Z,86.88
2018-04-16T01:59:09.027Z,87.08
2018-04-16T02:00:08.856Z,86.88
2018-04-16T02:02:05.357Z,87.08
2018-04-16T02:03:04.930Z,87.27
2018-04-16T02:05:12.051Z,87.46
2018-04-16T02:06:11.458Z,87.27
2018-04-16T02:07:11.437Z,88.03
2018-04-16T02:08:11.420Z,87.65
2018-04-16T02:09:11.410Z,87.84
2018-04-16T02:10:11.381Z,87.46
2018-04-16T02:11:11.359Z,87.74
2018-04-16T02:12:11.353Z,87.94
2018-04-16T02:13:11.329Z,88.03
2018-04-16T02:14:11.309Z,87.55
2018-04-16T02:15:11.282Z,87.37
2018-04-16T02:16:11.269Z,87.37
2018-04-16T02:17:11.615Z,87.46
2018-04-16T02:18:11.225Z,87.55
2018-04-16T02:19:11.205Z,87.55
2018-04-16T02:20:11.187Z,87.46
2018-04-16T02:21:11.165Z,87.65
2018-04-16T02:22:11.149Z,87.74
2018-04-16T02:23:11.131Z,87.46
2018-04-16T02:24:11.108Z,87.55
2018-04-16T02:25:11.095Z,87.46
2018-04-16T02:26:11.074Z,87.55
2018-04-16T02:27:11.051Z,87.37
2018-04-16T02:28:11.037Z,87.46
2018-04-16T02:29:11.015Z,87.46
2018-04-16T02:30:10.995Z,87.37
2018-04-16T02:31:11.005Z,87.37
2018-04-16T02:32:10.968Z,87.55
2018-04-16T02:33:11.009Z,87.84
2018-04-16T02:34:10.918Z,87.65
2018-04-16T02:35:10.898Z,87.84
2018-04-16T02:36:10.884Z,87.65
2018-04-16T02:37:10.860Z,87.55
2018-04-16T02:38:10.842Z,87.55
2018-04-16T02:39:10.822Z,87.65
2018-04-16T02:40:10.801Z,87.65
2018-04-16T02:41:10.783Z,87.37
2018-04-16T02:42:10.767Z,87.84
2018-04-16T02:43:10.744Z,87.84
2018-04-16T02:44:10.728Z,88.03
2018-04-16T02:45:10.709Z,87.74
2018-04-16T02:46:10.691Z,88.23
2018-04-16T02:47:10.677Z,88.13
2018-04-16T02:48:10.649Z,87.84
2018-04-16T02:49:10.631Z,87.74
2018-04-16T02:50:10.610Z,87.84
2018-04-16T02:51:10.594Z,87.84
2018-04-16T02:52:10.575Z,88.23
2018-04-16T02:53:10.554Z,88.80
2018-04-16T02:54:10.547Z,88.80
2018-04-16T02:55:10.522Z,88.70
2018-04-16T02:56:10.497Z,88.80
2018-04-16T02:57:10.480Z,88.99
2018-04-16T02:58:10.465Z,88.80
2018-04-16T02:59:10.444Z,88.70
2018-04-16T03:00:10.429Z,89.09
2018-04-16T03:01:10.398Z,88.80
2018-04-16T03:02:10.381Z,88.70
2018-04-16T03:03:10.373Z,88.23
2018-04-16T03:04:10.362Z,87.84
2018-04-16T03:05:10.324Z,87.74
2018-04-16T03:06:10.303Z,88.32
2018-04-16T03:07:10.295Z,87.84
2018-04-16T03:08:10.268Z,88.99
2018-04-16T03:09:10.250Z,88.70
2018-04-16T03:10:10.228Z,88.99
2018-04-16T03:11:10.209Z,88.99
2018-04-16T03:12:10.196Z,88.61
2018-04-16T03:13:10.172Z,88.61
2018-04-16T03:14:10.155Z,88.99
2018-04-16T03:15:10.131Z,88.61
2018-04-16T03:16:10.117Z,88.80
2018-04-16T03:17:10.140Z,88.80
2018-04-16T03:18:10.074Z,88.80
2018-04-16T03:19:10.059Z,88.99
2018-04-16T03:20:10.042Z,89.62
2018-04-16T03:21:10.023Z,89.14
2018-04-16T03:22:10.003Z,89.37
2018-04-16T03:23:09.992Z,88.95
2018-04-16T03:24:09.995Z,88.76
2018-04-16T03:25:09.996Z,89.72
2018-04-16T03:26:09.993Z,89.62
2018-04-16T03:27:09.993Z,89.43
2018-04-16T03:28:09.993Z,89.43
2018-04-16T03:29:09.972Z,89.81
2018-04-16T03:30:09.898Z,89.62
2018-04-16T03:31:09.901Z,89.81
2018-04-16T03:32:09.818Z,89.90
2018-04-16T03:33:09.793Z,89.52
2018-04-16T03:34:09.779Z,90.00
2018-04-16T03:35:09.757Z,89.23
2018-04-16T03:36:09.731Z,89.62
2018-04-16T03:37:09.713Z,89.43
2018-04-16T03:38:09.698Z,89.23
2018-04-16T03:39:09.675Z,89.76
2018-04-16T03:40:09.656Z,89.72
2018-04-16T03:41:09.637Z,89.76
2018-04-16T03:42:09.614Z,89.76
2018-04-16T03:43:09.597Z,88.95
2018-04-16T03:44:09.576Z,89.90
2018-04-16T03:45:09.556Z,89.14
2018-04-16T03:46:09.541Z,89.81
2018-04-16T03:47:09.518Z,89.72
2018-04-16T03:48:09.521Z,89.62
2018-04-16T03:49:09.478Z,89.52
2018-04-16T03:50:09.459Z,89.62
2018-04-16T03:51:09.440Z,89.52
2018-04-16T03:52:09.425Z,90.00
2018-04-16T03:53:09.404Z,89.23
2018-04-16T03:54:09.391Z,89.81
2018-04-16T03:55:09.385Z,89.23
2018-04-16T03:56:09.353Z,89.81
2018-04-16T03:57:09.327Z,89.52
2018-04-16T03:58:09.308Z,89.62
2018-04-16T03:59:09.295Z,90.00
2018-04-16T04:00:09.270Z,89.81
2018-04-16T04:01:09.250Z,90.58
2018-04-16T04:02:09.273Z,90.29
2018-04-16T04:03:09.282Z,89.90
2018-04-16T04:04:09.196Z,90.00
2018-04-16T04:05:09.176Z,89.62
2018-04-16T04:06:09.163Z,89.90
2018-04-16T04:07:09.134Z,89.81
2018-04-16T04:08:09.111Z,89.90
2018-04-16T04:09:09.156Z,89.90
2018-04-16T04:10:09.075Z,90.00
2018-04-16T04:11:09.054Z,89.90
2018-04-16T04:12:09.041Z,89.23
2018-04-16T04:13:09.015Z,89.23
2018-04-16T04:14:08.998Z,89.37
2018-04-16T04:15:08.978Z,90.00
2018-04-16T04:16:08.958Z,89.90
2018-04-16T04:17:08.947Z,89.81
2018-04-16T04:18:08.921Z,89.90
2018-04-16T04:19:08.909Z,90.00
2018-04-16T04:20:08.880Z,90.19
2018-04-16T04:21:08.864Z,89.86
2018-04-16T04:22:08.845Z,90.23
2018-04-16T04:23:08.823Z,89.81
2018-04-16T04:24:08.809Z,89.76
2018-04-16T04:25:08.784Z,89.86
2018-04-16T04:26:08.767Z,90.05
2018-04-16T04:27:08.748Z,89.86
2018-04-16T04:28:08.732Z,90.14
2018-04-16T04:29:08.708Z,89.95
2018-04-16T04:30:08.691Z,89.86
2018-04-16T04:31:08.668Z,89.90
2018-04-16T04:32:08.659Z,90.48
2018-04-16T04:33:08.632Z,90.29
2018-04-16T04:34:08.641Z,90.00
2018-04-16T04:35:08.592Z,90.29
2018-04-16T04:36:08.573Z,90.19
2018-04-16T04:37:08.556Z,90.29
2018-04-16T04:38:08.538Z,90.39
2018-04-16T04:39:08.530Z,90.19
2018-04-16T04:40:08.495Z,90.29
2018-04-16T04:41:08.576Z,90.77
2018-04-16T04:42:08.461Z,90.48
2018-04-16T04:43:08.571Z,90.48
2018-04-16T04:44:08.417Z,90.86
2018-04-16T04:45:08.470Z,90.58
2018-04-16T04:46:08.383Z,90.39
2018-04-16T04:47:08.455Z,90.58
2018-04-16T04:48:08.400Z,90.86
2018-04-16T04:49:08.331Z,90.39
2018-04-16T04:50:08.306Z,90.39
2018-04-16T04:51:08.289Z,90.77
2018-04-16T04:52:09.390Z,90.39
2018-04-16T04:53:08.244Z,90.96
2018-04-16T04:54:08.230Z,90.67
2018-04-16T04:55:08.242Z,90.39
2018-04-16T04:56:08.185Z,90.39
2018-04-16T04:57:08.169Z,90.48
2018-04-16T04:58:08.149Z,90.39
2018-04-16T04:59:08.127Z,90.86
2018-04-16T05:00:08.112Z,90.77
2018-04-16T05:01:08.090Z,90.58
2018-04-16T05:02:08.097Z,90.19
2018-04-16T05:03:08.095Z,90.81
2018-04-16T05:04:08.095Z,90.05
2018-04-16T05:05:08.100Z,90.39
2018-04-16T05:06:08.095Z,90.39
2018-04-16T05:07:08.100Z,90.19
2018-04-16T05:08:08.077Z,90.58
2018-04-16T05:09:07.989Z,90.39
2018-04-16T05:10:08.033Z,90.67
2018-04-16T05:11:07.898Z,90.77
2018-04-16T05:12:07.879Z,90.58
2018-04-16T05:13:08.482Z,90.48
2018-04-16T05:14:07.840Z,90.86
2018-04-16T05:15:07.815Z,91.05
2018-04-16T05:16:07.799Z,90.96
2018-04-16T05:17:07.784Z,90.58
2018-04-16T05:18:07.765Z,91.44
2018-04-16T05:19:07.742Z,91.34
2018-04-16T05:20:07.721Z,90.96
2018-04-16T05:21:07.700Z,90.96
2018-04-16T05:22:07.683Z,90.77
2018-04-16T05:23:07.668Z,91.05
2018-04-16T05:24:07.641Z,90.48
2018-04-16T05:25:07.630Z,90.77
2018-04-16T05:26:07.605Z,91.05
2018-04-16T05:27:07.584Z,91.05
2018-04-16T05:28:07.565Z,90.67
2018-04-16T05:29:07.547Z,90.86
2018-04-16T05:30:07.530Z,90.29
2018-04-16T05:31:07.508Z,90.39
2018-04-16T05:32:07.511Z,90.39
2018-04-16T05:33:07.525Z,90.67
2018-04-16T05:34:07.516Z,90.39
2018-04-16T05:35:07.431Z,90.39
2018-04-16T05:36:07.413Z,90.39
2018-04-16T05:37:07.396Z,91.05
2018-04-16T05:38:07.385Z,90.58
2018-04-16T05:39:07.352Z,90.86
2018-04-16T05:40:07.345Z,90.86
2018-04-16T05:41:07.312Z,90.39
2018-04-16T05:42:07.295Z,90.48
2018-04-16T05:43:07.280Z,90.39
2018-04-16T05:44:07.257Z,91.05
2018-04-16T05:45:07.234Z,91.05
2018-04-16T05:46:07.217Z,91.05
2018-04-16T05:47:07.194Z,90.96
2018-04-16T05:48:07.177Z,90.62
2018-04-16T05:49:07.166Z,91.15
2018-04-16T05:50:07.142Z,90.77
2018-04-16T05:51:07.116Z,90.48
2018-04-16T05:52:07.107Z,91.25
2018-04-16T05:53:07.078Z,90.96
2018-04-16T05:54:07.062Z,90.58
2018-04-16T05:55:07.038Z,90.58
2018-04-16T05:56:07.019Z,90.77
2018-04-16T05:57:07.004Z,91.05
2018-04-16T05:58:06.981Z,91.44
2018-04-16T05:59:06.963Z,90.81
2018-04-16T06:00:06.941Z,91.15
2018-04-16T06:01:06.926Z,90.86
2018-04-16T06:02:06.910Z,91.05
2018-04-16T06:03:06.884Z,90.58
2018-04-16T06:04:06.868Z,91.15
2018-04-16T06:05:06.846Z,91.15
2018-04-16T06:06:06.825Z,90.91
2018-04-16T06:07:06.808Z,91.29
2018-04-16T06:08:06.793Z,91.34
2018-04-16T06:09:06.766Z,91.10
2018-04-16T06:10:06.756Z,91.15
2018-04-16T06:11:06.728Z,91.34
2018-04-16T06:12:06.721Z,91.15
2018-04-16T06:13:06.692Z,91.15
2018-04-16T06:14:06.667Z,91.05
2018-04-16T06:15:06.656Z,91.15
2018-04-16T06:16:06.631Z,90.96
2018-04-16T06:17:06.648Z,91.34
2018-04-16T06:18:06.615Z,91.15
2018-04-16T06:19:06.601Z,91.05
2018-04-16T06:20:06.553Z,92.11
2018-04-16T06:21:06.532Z,91.15
2018-04-16T06:22:06.521Z,91.25
2018-04-16T06:23:06.498Z,91.34
2018-04-16T06:24:06.483Z,91.05
2018-04-16T06:25:06.464Z,90.96
2018-04-16T06:26:06.437Z,91.05
2018-04-16T06:27:06.424Z,91.34
2018-04-16T06:28:06.401Z,90.96
2018-04-16T06:29:06.386Z,90.96
2018-04-16T06:30:06.359Z,91.44
2018-04-16T06:31:06.342Z,91.34
2018-04-16T06:32:06.344Z,91.34
2018-04-16T06:33:06.301Z,91.15
2018-04-16T06:34:06.281Z,91.34
2018-04-16T06:35:29.905Z,91.53
2018-04-16T06:36:06.263Z,91.05
2018-04-16T06:37:06.222Z,91.92
2018-04-16T06:38:06.203Z,91.92
2018-04-16T06:39:06.184Z,91.53
2018-04-16T06:40:06.191Z,92.01
2018-04-16T06:41:06.184Z,91.72
2018-04-16T06:42:06.187Z,91.53
2018-04-16T06:43:06.193Z,91.72
2018-04-16T06:44:06.193Z,91.72
2018-04-16T06:45:06.140Z,91.72
2018-04-16T06:46:06.150Z,91.72
2018-04-16T06:47:06.098Z,91.53
2018-04-16T06:48:06.101Z,91.82
2018-04-16T06:49:05.991Z,91.34
2018-04-16T06:50:05.981Z,92.21
2018-04-16T06:51:05.948Z,92.01
2018-04-16T06:52:05.929Z,92.01
2018-04-16T06:53:05.959Z,92.01
2018-04-16T06:54:05.903Z,91.92
2018-04-16T06:55:05.882Z,92.21
2018-04-16T06:56:05.870Z,92.01
2018-04-16T06:57:05.847Z,92.11
2018-04-16T06:58:05.835Z,91.72
2018-04-16T06:59:05.841Z,91.72
2018-04-16T07:00:05.794Z,92.21
2018-04-16T07:01:05.768Z,91.92
2018-04-16T07:02:05.817Z,92.30
2018-04-16T07:03:05.892Z,92.15
2018-04-16T07:04:05.703Z,91.63
2018-04-16T07:05:05.681Z,91.77
2018-04-16T07:06:05.663Z,91.77
2018-04-16T07:07:05.655Z,91.10
2018-04-16T07:08:05.624Z,91.10
2018-04-16T07:09:05.612Z,91.58
2018-04-16T07:10:05.592Z,91.39
2018-04-16T07:11:05.563Z,91.19
2018-04-16T07:12:05.543Z,91.58
2018-04-16T07:13:05.523Z,91.86
2018-04-16T07:14:05.501Z,90.91
2018-04-16T07:15:05.479Z,91.77
2018-04-16T07:16:05.459Z,91.96
2018-04-16T07:17:05.452Z,91.77
2018-04-16T07:18:05.439Z,91.67
2018-04-16T07:19:05.402Z,92.15
2018-04-16T07:20:05.378Z,91.96
2018-04-16T07:21:05.365Z,92.06
2018-04-16T07:22:05.343Z,92.06
2018-04-16T07:23:05.325Z,91.86
2018-04-16T07:24:05.304Z,92.06
2018-04-16T07:25:05.283Z,91.67
2018-04-16T07:26:05.264Z,92.06
2018-04-16T07:27:05.262Z,91.67
2018-04-16T07:28:05.232Z,91.86
2018-04-16T07:29:05.213Z,91.10
2018-04-16T07:30:05.191Z,90.91
2018-04-16T07:31:05.180Z,91.29
2018-04-16T07:32:05.148Z,91.49
2018-04-16T07:33:05.129Z,91.00
2018-04-16T07:34:05.118Z,91.00
2018-04-16T07:35:05.091Z,90.91
2018-04-16T07:36:05.089Z,91.67
2018-04-16T07:37:05.056Z,91.10
2018-04-16T07:38:05.031Z,91.96
2018-04-16T07:39:05.014Z,91.49
2018-04-16T07:40:04.989Z,91.39
2018-04-16T07:41:04.975Z,91.29
2018-04-16T07:42:04.956Z,91.19
2018-04-16T07:43:04.935Z,91.19
2018-04-16T07:44:04.919Z,90.95
2018-04-16T07:45:04.898Z,91.96
2018-04-16T07:46:04.878Z,91.49
2018-04-16T07:47:04.870Z,91.14
2018-04-16T07:48:06.215Z,91.14
2018-04-16T07:49:04.853Z,91.19
2018-04-16T07:50:04.806Z,91.19
2018-04-16T07:51:04.782Z,91.34
2018-04-16T07:52:04.765Z,91.34
2018-04-16T07:53:04.762Z,91.00
2018-04-16T07:54:04.735Z,91.29
2018-04-16T07:55:04.709Z,91.14
2018-04-16T07:56:04.689Z,91.34
2018-04-16T07:57:04.671Z,91.14
2018-04-16T07:58:04.663Z,91.24
2018-04-16T07:59:04.637Z,91.05
2018-04-16T08:00:04.619Z,91.34
2018-04-16T08:01:04.606Z,91.24
2018-04-16T08:02:04.572Z,91.43
2018-04-16T08:03:04.556Z,91.34
2018-04-16T08:04:04.535Z,90.95
2018-04-16T08:05:04.514Z,91.63
2018-04-16T08:06:07.409Z,91.34
2018-04-16T08:07:04.482Z,91.14
2018-04-16T08:08:04.455Z,91.34
2018-04-16T08:09:05.263Z,91.24
2018-04-16T08:10:04.491Z,91.63
2018-04-16T08:11:04.404Z,91.82
2018-04-16T08:12:04.379Z,92.01
2018-04-16T08:13:04.362Z,91.82
2018-04-16T08:14:04.342Z,91.82
2018-04-16T08:15:04.323Z,91.14
2018-04-16T08:16:04.322Z,91.43
2018-04-16T08:17:04.287Z,91.34
2018-04-16T08:18:04.266Z,91.34
2018-04-16T08:19:04.265Z,91.05
2018-04-16T08:20:04.272Z,91.34
2018-04-16T08:21:04.275Z,91.43
2018-04-16T08:22:04.280Z,91.24
2018-04-16T08:23:04.272Z,91.24
2018-04-16T08:24:04.274Z,90.71
2018-04-16T08:25:04.247Z,91.53
2018-04-16T08:26:04.225Z,91.14
2018-04-16T08:27:04.209Z,91.34
2018-04-16T08:28:04.076Z,91.19
2018-04-16T08:29:04.057Z,90.90
2018-04-16T08:30:04.397Z,91.19
2018-04-16T08:31:04.024Z,91.19
2018-04-16T08:32:04.012Z,91.48
2018-04-16T08:33:04.027Z,91.38
2018-04-16T08:34:03.962Z,90.71
2018-04-16T08:35:03.955Z,90.71
2018-04-16T08:36:03.929Z,90.71
2018-04-16T08:37:03.943Z,90.90
2018-04-16T08:38:03.889Z,90.42
2018-04-16T08:39:03.867Z,90.52
2018-04-16T08:40:03.848Z,90.71
2018-04-16T08:41:03.832Z,90.04
2018-04-16T08:42:03.814Z,90.14
2018-04-16T08:43:03.795Z,90.33
2018-04-16T08:44:03.776Z,89.47
2018-04-16T08:45:03.756Z,89.94
2018-04-16T08:46:03.740Z,89.85
2018-04-16T08:47:03.717Z,89.56
2018-04-16T08:48:03.706Z,89.37
2018-04-16T08:49:03.680Z,89.56
2018-04-16T08:50:03.666Z,89.65
2018-04-16T08:51:03.639Z,89.56
2018-04-16T08:52:03.623Z,89.56
2018-04-16T08:53:03.607Z,89.47
2018-04-16T08:54:03.584Z,89.27
2018-04-16T08:55:03.583Z,89.08
2018-04-16T08:56:03.545Z,89.65
2018-04-16T08:57:03.528Z,89.27
2018-04-16T08:58:03.509Z,88.98
2018-04-16T08:59:03.487Z,89.27
2018-04-16T09:00:03.472Z,89.37
2018-04-16T09:01:03.453Z,89.47
2018-04-16T09:02:03.434Z,89.47
2018-04-16T09:03:03.419Z,89.27
2018-04-16T09:04:03.397Z,89.08
2018-04-16T09:05:03.379Z,89.27
2018-04-16T09:06:03.361Z,88.70
2018-04-16T09:07:03.340Z,88.98
2018-04-16T09:08:03.319Z,89.08
2018-04-16T09:09:03.304Z,88.98
2018-04-16T09:10:03.284Z,88.89
2018-04-16T09:11:03.263Z,88.51
2018-04-16T09:12:03.255Z,89.18
2018-04-16T09:13:03.227Z,89.18
2018-04-16T09:14:03.208Z,88.79
2018-04-16T09:15:03.194Z,89.37
2018-04-16T09:16:03.170Z,89.27
2018-04-16T09:17:03.155Z,88.79
2018-04-16T09:18:03.135Z,89.47
2018-04-16T09:19:03.157Z,89.85
2018-04-16T09:20:03.148Z,89.27
2018-04-16T09:21:03.077Z,89.85
2018-04-16T09:22:03.061Z,89.75
2018-04-16T09:23:03.039Z,89.85
2018-04-16T09:24:03.022Z,88.89
2018-04-16T09:25:03.002Z,88.98
2018-04-16T09:26:02.990Z,88.89
2018-04-16T09:27:02.966Z,88.98
2018-04-16T09:28:02.945Z,89.18
2018-04-16T09:29:02.931Z,88.98
2018-04-16T09:30:02.909Z,88.70
2018-04-16T09:31:02.890Z,88.89
2018-04-16T09:32:02.883Z,88.98
2018-04-16T09:33:02.864Z,88.12
2018-04-16T09:34:02.835Z,89.08
2018-04-16T09:35:02.811Z,88.89
2018-04-16T09:36:02.796Z,89.47
2018-04-16T09:37:02.782Z,89.47
2018-04-16T09:38:02.781Z,89.08
2018-04-16T09:39:02.739Z,89.18
2018-04-16T09:40:02.720Z,88.89
2018-04-16T09:41:02.702Z,88.98
2018-04-16T09:42:02.686Z,89.27
2018-04-16T09:43:02.664Z,89.18
2018-04-16T09:44:02.646Z,88.98
2018-04-16T09:45:02.623Z,88.89
2018-04-16T09:46:02.608Z,88.98
2018-04-16T09:47:02.584Z,88.70
2018-04-16T09:48:02.569Z,89.08
2018-04-16T09:49:02.550Z,88.98
2018-04-16T09:50:02.532Z,88.70
2018-04-16T09:51:02.512Z,88.70
2018-04-16T09:52:02.505Z,89.08
2018-04-16T09:53:02.475Z,88.79
2018-04-16T09:54:02.460Z,88.79
2018-04-16T09:55:02.447Z,89.08
2018-04-16T09:56:02.419Z,89.27
2018-04-16T09:57:02.401Z,89.08
2018-04-16T09:58:02.380Z,89.08
2018-04-16T09:59:02.370Z,88.89
2018-04-16T10:00:02.381Z,88.70
2018-04-16T10:01:02.410Z,89.27
2018-04-16T10:02:02.368Z,87.93
2018-04-16T10:03:02.369Z,88.79
2018-04-16T10:04:02.373Z,88.98
2018-04-16T10:05:02.381Z,88.70
2018-04-16T10:06:02.364Z,89.08
2018-04-16T10:08:37.001Z,89.18
2018-04-16T10:09:36.871Z,88.89
2018-04-16T10:11:33.528Z,88.22
2018-04-16T10:12:32.803Z,88.51
2018-04-16T10:14:29.338Z,88.51
2018-04-16T10:15:28.727Z,88.22
2018-04-16T10:17:25.259Z,88.65
2018-04-16T10:18:24.676Z,88.26
2018-04-16T10:20:20.787Z,88.07
2018-04-16T10:21:20.645Z,87.88
2018-04-16T10:23:16.781Z,88.45
2018-04-16T10:24:16.568Z,88.45
2018-04-16T10:25:16.559Z,87.88
2018-04-16T10:26:17.679Z,88.17
2018-04-16T10:27:16.510Z,87.98
2018-04-16T10:28:16.486Z,87.98
2018-04-16T10:29:16.469Z,88.17
2018-04-16T10:30:16.448Z,87.98
2018-04-16T10:31:16.432Z,87.98
2018-04-16T10:32:16.421Z,87.78
2018-04-16T10:33:16.396Z,88.26
2018-04-16T10:34:16.393Z,87.88
2018-04-16T10:35:16.449Z,87.98
2018-04-16T10:36:16.392Z,87.98
2018-04-16T10:37:16.442Z,87.59
2018-04-16T10:38:16.394Z,87.59
2018-04-16T10:39:16.397Z,87.11
2018-04-16T10:40:16.376Z,87.40
2018-04-16T10:41:16.301Z,86.92
2018-04-16T10:42:16.288Z,87.49
2018-04-16T10:43:16.208Z,87.21
2018-04-16T10:44:16.188Z,87.49
2018-04-16T10:45:16.195Z,87.98
2018-04-16T10:46:16.150Z,87.21
2018-04-16T10:47:16.769Z,86.92
2018-04-16T10:48:16.114Z,86.92
2018-04-16T10:49:16.099Z,87.11
2018-04-16T10:50:16.078Z,87.40
2018-04-16T10:51:16.059Z,86.92
2018-04-16T10:52:16.036Z,86.92
2018-04-16T10:53:51.558Z,87.40
2018-04-16T10:54:16.004Z,87.11
2018-04-16T10:55:15.981Z,87.21
2018-04-16T10:56:15.969Z,87.11
2018-04-16T10:57:15.961Z,86.72
2018-04-16T10:58:15.931Z,87.11
2018-04-16T10:59:15.915Z,87.30
2018-04-16T11:00:15.891Z,86.92
2018-04-16T11:01:15.873Z,86.54
2018-04-16T11:02:15.854Z,86.82
2018-04-16T11:03:15.837Z,86.54
2018-04-16T11:04:15.816Z,86.72
2018-04-16T11:05:15.809Z,86.54
2018-04-16T11:06:15.812Z,86.44
2018-04-16T11:07:15.770Z,87.40
2018-04-16T11:08:15.782Z,87.21
2018-04-16T11:09:15.724Z,87.30
2018-04-16T11:10:15.712Z,86.63
2018-04-16T11:11:15.685Z,87.30
2018-04-16T11:12:15.665Z,86.63
2018-04-16T11:13:15.655Z,86.34
2018-04-16T11:14:15.630Z,86.92
2018-04-16T11:15:15.614Z,86.82
2018-04-16T11:16:15.594Z,87.21
2018-04-16T11:17:15.577Z,87.21
2018-04-16T11:18:15.559Z,87.01
2018-04-16T11:19:15.590Z,87.11
2018-04-16T11:20:15.520Z,87.40
2018-04-16T11:21:15.501Z,87.40
2018-04-16T11:22:15.480Z,87.11
2018-04-16T11:23:15.511Z,87.49
2018-04-16T11:24:15.446Z,87.11
2018-04-16T11:25:15.430Z,86.72
2018-04-16T11:26:15.412Z,86.63
2018-04-16T11:27:15.387Z,86.92
2018-04-16T11:28:15.368Z,86.82
2018-04-16T11:29:15.353Z,86.72
2018-04-16T11:30:15.332Z,86.63
2018-04-16T11:31:15.324Z,86.44
2018-04-16T11:32:15.298Z,86.63
2018-04-16T11:33:15.275Z,86.63
2018-04-16T11:34:15.271Z,86.72
2018-04-16T11:35:15.243Z,86.15
2018-04-16T11:36:15.220Z,86.34
2018-04-16T11:37:15.217Z,85.96
2018-04-16T11:38:15.184Z,86.54
2018-04-16T11:39:15.167Z,86.15
2018-04-16T11:40:15.144Z,86.44
2018-04-16T11:41:15.127Z,85.96
2018-04-16T11:42:15.110Z,86.54
2018-04-16T11:43:15.091Z,86.15
2018-04-16T11:44:15.080Z,86.34
2018-04-16T11:45:15.056Z,86.15
2018-04-16T11:46:15.036Z,86.54
2018-04-16T11:47:15.017Z,86.44
2018-04-16T11:48:14.997Z,86.63
2018-04-16T11:49:14.979Z,86.05
2018-04-16T11:50:14.963Z,86.25
2018-04-16T11:51:14.943Z,86.25
2018-04-16T11:52:14.924Z,86.44
2018-04-16T11:53:14.905Z,86.34
2018-04-16T11:55:50.819Z,86.63
2018-04-16T11:56:50.501Z,86.54
2018-04-16T11:58:47.051Z,86.63
2018-04-16T11:59:46.654Z,86.44
2018-04-16T12:01:42.781Z,86.44
2018-04-16T12:02:42.632Z,86.44
2018-04-16T12:04:38.738Z,86.25
2018-04-16T12:05:38.555Z,86.05
2018-04-16T12:07:34.756Z,86.63
2018-04-16T12:08:34.551Z,86.44
2018-04-16T12:10:31.084Z,87.40
2018-04-16T12:11:30.485Z,86.82
2018-04-16T12:13:27.000Z,86.44
2018-04-16T12:14:26.638Z,86.54
2018-04-16T12:16:22.739Z,86.34
2018-04-16T12:17:22.487Z,86.72
2018-04-16T12:19:18.896Z,86.72
2018-04-16T12:20:18.319Z,86.92
2018-04-16T12:22:14.577Z,86.72
2018-04-16T12:23:14.305Z,86.63
2018-04-16T12:25:10.624Z,86.72
2018-04-16T12:26:10.402Z,86.25
2018-04-16T12:28:06.910Z,86.25
2018-04-16T12:29:06.500Z,86.34
2018-04-16T12:31:02.708Z,86.40
2018-04-16T12:32:02.508Z,85.86
2018-04-16T12:33:58.588Z,86.05
2018-04-16T12:34:58.495Z,86.25
2018-04-16T12:36:54.918Z,85.96
2018-04-16T12:37:54.462Z,86.05
2018-04-16T12:39:50.899Z,86.54
2018-04-16T12:40:50.512Z,85.58
2018-04-16T12:42:46.594Z,85.86
2018-04-16T12:43:46.458Z,85.48
2018-04-16T12:45:42.613Z,85.67
2018-04-16T12:47:58.965Z,85.38
2018-04-16T12:48:58.416Z,85.19
2018-04-16T12:50:55.377Z,84.91
2018-04-16T12:51:54.418Z,85.28
2018-04-16T12:53:52.525Z,85.67
2018-04-16T12:54:51.682Z,85.77
2018-04-16T12:56:47.773Z,85.38
2018-04-16T12:57:47.587Z,85.38
2018-04-16T12:59:43.775Z,85.67
2018-04-16T13:00:43.549Z,85.86
2018-04-16T13:02:39.639Z,85.38
2018-04-16T13:03:39.478Z,85.10
2018-04-16T13:05:35.666Z,84.91
2018-04-16T13:06:35.458Z,85.28
2018-04-16T13:08:31.621Z,85.38
2018-04-16T13:09:31.519Z,85.58
2018-04-16T13:11:27.632Z,85.28
2018-04-16T13:12:27.495Z,85.28
2018-04-16T13:14:23.655Z,85.19
2018-04-16T13:15:23.529Z,85.19
2018-04-16T13:17:20.196Z,85.48
2018-04-16T13:18:19.476Z,85.10
2018-04-16T13:20:15.704Z,84.91
2018-04-16T13:21:15.541Z,84.91
2018-04-16T13:23:12.062Z,84.71
2018-04-16T13:24:11.491Z,85.10
2018-04-16T13:26:09.084Z,84.91
2018-04-16T13:27:08.990Z,84.81
2018-04-16T13:29:05.387Z,85.10
2018-04-16T13:30:04.864Z,85.10
2018-04-16T13:32:01.456Z,84.42
2018-04-16T13:33:00.809Z,84.61
2018-04-16T13:34:56.999Z,83.65
2018-04-16T13:35:56.790Z,84.71
2018-04-16T13:37:52.987Z,84.23
2018-04-16T13:38:52.716Z,84.81
2018-04-16T13:40:49.276Z,84.91